Terminal Aerodrome Forecast
Issued by NWS

Home | Current Version | Previous Version | Text Only | Print | Product List | Glossary On
Versions: 1 2 3 4 5 6 7 8 9 10 11 12 13
153
FTPA31 PHFO 281754
TAFHKO
TAF
PHKO 281754Z 2818/2918 12008KT P6SM VCSH SCT035 BKN060
     FM282000 26010KT P6SM FEW035 SCT060
     FM290000 19010KT P6SM VCSH SCT035 BKN060
     FM290500 14007KT P6SM VCSH SCT035 BKN060=

USA.gov is the U.S. government's official web portal to all federal, state and local government web resources and services.